DIRECCIÓN GENERAL DE AERONÁUTICA CIVIL
DIRECCIÓN METEOROLÓGICA DE CHILE
INFORMACIÓN METAR Y TAF

FIR SANTIAGO

Estación: SCSE
METAR SCSE 260800Z 00000KT CAVOK 11/07 Q1017=

TAF SCSE 260420Z 2606/2706 12005KT CAVOK TX16/2619Z TN11/2610Z TEMPO 2608/2613 26005KT BKN010 BECMG 2616/2618 29010KT BECMG 2623/2701 12005KT SCT012 TEMPO 2703/2706 29005KT OVC010=

Estación: SCER
METAR SCER 161100Z 00000KT 7000 OVC014 12/10 Q1015=

TAF SCER NIL=

Estación: SCRD
METAR SCRD 252200Z 17004KT CAVOK 15/13 Q1021=

TAF SCRD 251026Z 2512/2524 VRB02KT 9999 BKN015 TX16/2518Z TN12/2512Z TEMPO 2512/2516 05005KT 5000 BR BKN010 BECMG 2516/2518 30005KT CAVOK BECMG 2520/2522 VRB02KT SCT010=

Estación: SCVM
METAR SCVM 260800Z 00000KT 8000 NSC 10/09 Q1019=

TAF SCVM 260420Z 2606/2706 00000KT 5000 HZ NSC TX18/2618Z TN09/2610Z TEMPO 2608/2612 VRB02KT 1500 BR BKN010 BECMG 2615/2617 32005KT BECMG 2621/2623 00000KT SCT015 BECMG 2702/2704 BKN010=

Estación: SCTB
METAR SCTB 252200Z 00000KT 7000 SCT120 SCT200 16/06 Q1022=

TAF SCTB 251026Z 2512/2524 VRB02KT 7000 NSC TX16/2518Z TN09/2512Z TEMPO 2512/2516 5000 HZ BECMG 2517/2519 20005KT CAVOK BECMG 2520/2522 7000 SCT025=

Estación: SCEL
METAR SCEL 260800Z 25002KT 4000 BR NSC 05/03 Q1020 NOSIG=

TAF AMD SCEL 260620Z 2606/2706 VRB02KT 4000 HZ NSC TX20/2618Z TN04/ 2610Z TEMPO 2606/2613 15005KT 0700 BCFG BKN004 BECMG 2615/2617 7000 BECMG 2617/2619 19010KT CAVOK BECMG 2702/2704 15005KT 6000=

Estación: SCSN
SPECI SCSN 260832Z AUTO 11003KT 0800 R/////// FG BKN001 BKN003 OVC005 09/09 Q1019=

TAF SCSN 251025Z 2512/2524 VRB02KT 5000 BR BKN020 TX16/2518Z TN12/ 2512Z TEMPO 2512/2516 10005KT 0800 FG OVC002 BECMG 2516/2518 30005KT 6000 BKN012 BECMG 2522/2524 VRB02KT=

Estación: SCRG
METAR SCRG 252100Z 19008KT 7000 NSC 16/09 Q1020=

TAF SCRG 251027Z 2512/2524 VRB02KT 9999 FEW030 TX19/2518Z TN10/2512Z TEMPO 2512/2516 02005KT 5000 HZ SCT010 BKN040 BECMG 2518/2520 25005KT SCT015 BKN025=

Estación: SCIC
METAR SCIC 260800Z AUTO 00000KT 8000 FEW002 BKN008 OVC011 09/09 Q1020=

TAF SCIC 251028Z 2512/2524 05008KT 9999 BKN020 TX18/2518Z TN09/2512Z TEMPO 2512/2516 VRB02KT 4000 -RA SCT012 OVC025 BECMG 2518/2520 36005KT 8000 SCT012 BKN025=

Estación: SCCH
SPECI SCCH 260830Z AUTO 26003KT 2500 BR NCD 07/07 Q1021=

TAF SCCH 251028Z 2512/2524 03005KT 9999 SHRA SCT020 BKN030 TX17/2518Z TN09/2512Z TEMPO 2512/2516 VRB02KT 3000 RA SCT010 OVC020 BECMG 2518/2520 36010KT BKN030=

Estación: SCIE
METAR SCIE 260800Z 00000KT 9999 SCT017 OVC027 14/13 Q1021=

TAF SCIE 260420Z 2606/2706 02005KT 6000 SCT015 TX17/2618Z TN11/2610Z TEMPO 2608/2612 VRB02KT 0800 FG SCT008 BKN015 BECMG 2615/2617 22008KT CAVOK BECMG 2701/2703 SCT015 TEMPO 2703/2706 14005KT 7000 OVC010=

Estación: SCGE
METAR SCGE 260500Z 03004KT 8000 BCFG SCT015 09/09 Q1021=

TAF SCGE 251028Z 2512/2524 00000KT 4000 SHRA BKN015 TX16/2518Z TN09/ 2512Z TEMPO 2512/2516 VRB02KT 3000 RA SCT010 OVC020 BECMG 2518/2520 36005KT 6000 BKN020=


Volver